Ghent, WV (25843)

6:07 PM EST on December 08, 2016 (GMT -0500)
Flat Top Lake | | Change Station

Elev 2969 ft 37.62 °N, 81.09 °W | Updated 28 seconds ago

Clear
Clear
27.5 °F
Feels Like 21 °F
N
6.0
Wind Variable Wind from North

Today
High -- | Low -- °F
--% Chance of Precip.
Yesterday
High -- | Low -- °F
Precip. -- in
Pressure 30.26 in
Visibility 10.0 miles
Clouds Clear
Windchill 21 °F
Dew Point 12 °F
Humidity 51%
Rainfall 0.00 in
Snow Depth Not available.
7:27 AM 5:05 PM
Waxing Gibbous, 67% visible
METAR KBKW 082251Z AUTO 31016G24KT 10SM CLR M02/M13 A3016 RMK AO2 SLP245 T10171128
Pressure 30.26 in
Visibility 10.0 miles
Clouds Clear
Windchill 21 °F
Dew Point 12 °F
Humidity 51%
Rainfall 0.00 in
Snow Depth Not available.
7:27 AM 5:05 PM
Waxing Gibbous, 67% visible
METAR KBKW 082251Z AUTO 31016G24KT 10SM CLR M02/M13 A3016 RMK AO2 SLP245 T10171128

10-Day Weather Forecast

Almanac

Astronomy

Dec. 08, 2016 Rise Set
Actual Time
Civil Twilight
Nautical Twilight
Astronomical Twilight
Moon
Length of Visible Light
Length of Day
Tomorrow will be .
, % of the Moon is Illuminated

Today's Extremes

State Highs State Lows

Community

WunderPhotos

Upload Photos

1,956,277 photos uploaded!

WunderBlog® & News

Nearby

Air Quality

  Air Quality AQ Index Pollutant
Not available.

Snow Depth

Station Depth Elevation

Earthquake Activity

City Distance Mag. Time & Date
Minimum magnitude displayed is 2.5.

Coastal Water Temperatures

Place Temperature

Stations

Nearby Weather Stations

Station Location Temp. Windchill Dew Point Humidity Wind Precip. Elev Updated Type
                   

Watches & Warnings

There are currently no watches in effect.